Главная страница
METAR-TAF:

METAR-TAF

Аэропорты :

Турсбю, Швеция

широта: 60-09-17N, долгота: 12-59-40E, высота над уровнем моря: 120 м

Текущие метеонаблюдения

Эта сводка был подготовлена 38 минут назад, в 09:20 UTC
Ветер 12 Узел от северно-северо-западный
Температура 4°C
Влажность 52%
Давление 1017 hPa
Видимость 10 км и более
Рассеянная облачность на высоте 4700 фута

METAR: ESST 260920Z 33012KT 9999 BKN047 04/M05 Q1017

Время: 10:58 (09:58 UTC)


TAF: отсутствует

Метеонаблюдения и прогнозы для более 4000 аэропортов (сводки METAR и TAF).

Имеющиеся станции представлены на карте желтыми и красными точками.

Чтобы увидеть название станции, наведите на нее мышь.

Затем щелкните, чтобы увидеть метеонаблюдения и метеопрогнозы.

Управление картой: чтобы увеличить масштаб, щелкните зеленые кнопки с черным крестиком; чтобы уменьшить масштаб, щелкните зеленую кнопку с тире; для просмотра соседних карт щелкайте зеленые стрелки.


METAR-TAF: